createdAt,value
2022-08-03T00:01:49.885Z,24.67
2022-08-03T00:04:16.655Z,24.64
2022-08-03T00:06:43.521Z,24.62
2022-08-03T00:09:10.420Z,24.60
2022-08-03T00:11:37.578Z,24.58
2022-08-03T00:14:05.901Z,24.56
2022-08-03T00:16:32.595Z,24.54
2022-08-03T00:19:00.771Z,24.52
2022-08-03T00:21:29.310Z,24.48
2022-08-03T00:23:56.077Z,24.46
2022-08-03T00:26:22.757Z,24.43
2022-08-03T00:28:50.307Z,24.40
2022-08-03T00:31:25.519Z,24.37
2022-08-03T00:34:04.220Z,24.34
2022-08-03T00:36:31.014Z,24.31
2022-08-03T00:38:57.627Z,24.28
2022-08-03T00:41:24.301Z,24.26
2022-08-03T00:43:51.113Z,24.23
2022-08-03T00:46:21.629Z,24.20
2022-08-03T00:48:53.424Z,24.18
2022-08-03T00:51:24.014Z,24.17
2022-08-03T00:53:51.107Z,24.17
2022-08-03T00:56:18.533Z,24.15
2022-08-03T00:58:46.964Z,24.11
2022-08-03T01:01:14.923Z,24.11
2022-08-03T01:03:41.889Z,24.07
2022-08-03T01:06:23.106Z,24.01
2022-08-03T01:09:08.332Z,24.00
2022-08-03T01:11:59.866Z,24.01
2022-08-03T01:14:34.732Z,24.00
2022-08-03T01:17:54.005Z,23.94
2022-08-03T01:20:24.260Z,23.97
2022-08-03T01:23:29.020Z,23.90
2022-08-03T01:26:23.704Z,23.88
2022-08-03T01:29:09.832Z,23.87
2022-08-03T01:32:53.391Z,23.87
2022-08-03T01:34:35.606Z,23.84
2022-08-03T01:37:07.489Z,23.82
2022-08-03T01:39:38.259Z,23.80
2022-08-03T01:42:07.636Z,23.78
2022-08-03T01:44:38.607Z,23.74
2022-08-03T01:47:06.940Z,23.73
2022-08-03T01:49:38.833Z,23.70
2022-08-03T01:52:07.470Z,23.69
2022-08-03T01:54:43.410Z,23.66
2022-08-03T01:57:11.478Z,23.66
2022-08-03T01:59:40.398Z,23.64
2022-08-03T02:02:29.116Z,23.62
2022-08-03T02:04:58.791Z,23.60
2022-08-03T02:07:27.163Z,23.59
2022-08-03T02:09:55.687Z,23.58
2022-08-03T02:12:24.951Z,23.55
2022-08-03T02:14:51.891Z,23.53
2022-08-03T02:17:39.743Z,23.52
2022-08-03T02:20:09.086Z,23.50
2022-08-03T02:22:37.442Z,23.48
2022-08-03T02:25:04.257Z,23.46
2022-08-03T02:27:34.821Z,23.42
2022-08-03T02:30:08.953Z,23.38
2022-08-03T02:32:41.427Z,23.37
2022-08-03T02:35:12.597Z,23.35
2022-08-03T02:37:49.829Z,23.33
2022-08-03T02:40:19.262Z,23.33
2022-08-03T02:42:49.505Z,23.32
2022-08-03T02:45:18.412Z,23.29
2022-08-03T02:47:54.100Z,23.28
2022-08-03T02:50:23.042Z,23.27
2022-08-03T02:52:51.238Z,23.26
2022-08-03T02:55:19.748Z,23.25
2022-08-03T02:57:47.472Z,23.23
2022-08-03T03:00:27.465Z,23.22
2022-08-03T03:02:58.863Z,23.21
2022-08-03T03:05:55.377Z,23.21
2022-08-03T03:08:17.698Z,23.18
2022-08-03T03:10:46.603Z,23.17
2022-08-03T03:13:16.972Z,23.14
2022-08-03T03:15:45.891Z,23.13
2022-08-03T03:18:17.755Z,23.12
2022-08-03T03:20:48.091Z,23.11
2022-08-03T03:23:15.525Z,23.08
2022-08-03T03:25:42.771Z,23.08
2022-08-03T03:28:10.835Z,23.02
2022-08-03T03:30:37.557Z,23.00
2022-08-03T03:33:04.289Z,22.97
2022-08-03T03:35:31.488Z,22.96
2022-08-03T03:38:05.528Z,22.93
2022-08-03T03:40:32.215Z,22.91
2022-08-03T03:42:58.928Z,22.89
2022-08-03T03:45:26.818Z,22.87
2022-08-03T03:47:53.498Z,22.85
2022-08-03T03:50:22.448Z,22.85
2022-08-03T03:52:49.083Z,22.84
2022-08-03T03:55:17.622Z,22.82
2022-08-03T03:57:44.280Z,22.80
2022-08-03T04:00:12.900Z,22.78
2022-08-03T04:02:39.841Z,22.75
2022-08-03T04:05:26.863Z,22.74
2022-08-03T04:08:22.107Z,22.70
2022-08-03T04:11:13.023Z,22.65
2022-08-03T04:13:49.814Z,22.67
2022-08-03T04:16:20.760Z,22.66
2022-08-03T04:18:52.525Z,22.63
2022-08-03T04:21:21.136Z,22.62
2022-08-03T04:23:51.003Z,22.59
2022-08-03T04:26:27.549Z,22.55
2022-08-03T04:28:55.218Z,22.56
2022-08-03T04:31:24.594Z,22.54
2022-08-03T04:33:52.903Z,22.53
2022-08-03T04:36:26.349Z,22.51
2022-08-03T04:38:55.601Z,22.51
2022-08-03T04:41:24.965Z,22.51
2022-08-03T04:43:54.980Z,22.51
2022-08-03T04:46:26.180Z,22.52
2022-08-03T04:48:53.563Z,22.53
2022-08-03T04:51:20.968Z,22.54
2022-08-03T04:53:47.899Z,22.54
2022-08-03T04:56:14.510Z,22.55
2022-08-03T04:58:41.196Z,22.55
2022-08-03T05:01:07.926Z,22.57
2022-08-03T05:03:34.460Z,22.57
2022-08-03T05:06:09.511Z,22.59
2022-08-03T05:08:46.136Z,22.59
2022-08-03T05:11:17.832Z,22.60
2022-08-03T05:13:45.665Z,22.62
2022-08-03T05:16:14.008Z,22.63
2022-08-03T05:18:45.095Z,22.64
2022-08-03T05:21:17.082Z,22.68
2022-08-03T05:23:45.161Z,22.70
2022-08-03T05:26:12.187Z,22.73
2022-08-03T05:28:39.283Z,22.74
2022-08-03T05:31:14.890Z,22.77
2022-08-03T05:33:41.626Z,22.81
2022-08-03T05:36:08.243Z,22.83
2022-08-03T05:38:35.568Z,22.85
2022-08-03T05:41:23.196Z,22.87
2022-08-03T05:43:53.978Z,22.91
2022-08-03T05:46:21.968Z,22.94
2022-08-03T05:48:48.743Z,22.96
2022-08-03T05:51:15.469Z,22.98
2022-08-03T05:53:43.183Z,23.00
2022-08-03T05:56:13.714Z,23.03
2022-08-03T05:58:47.388Z,23.09
2022-08-03T06:01:16.075Z,23.13
2022-08-03T06:03:42.818Z,23.18
2022-08-03T06:06:09.651Z,23.24
2022-08-03T06:08:36.421Z,23.27
2022-08-03T06:11:03.742Z,23.33
2022-08-03T06:13:30.593Z,23.38
2022-08-03T06:15:57.409Z,23.42
2022-08-03T06:18:26.774Z,23.49
2022-08-03T06:20:54.306Z,23.55
2022-08-03T06:23:21.969Z,23.62
2022-08-03T06:25:48.725Z,23.68
2022-08-03T06:28:42.387Z,23.73
2022-08-03T06:31:03.600Z,23.81
2022-08-03T06:33:48.517Z,23.88
2022-08-03T06:36:20.137Z,23.93
2022-08-03T06:38:46.795Z,23.99
2022-08-03T06:41:13.605Z,24.05
2022-08-03T06:44:03.305Z,24.11
2022-08-03T06:46:26.746Z,24.18
2022-08-03T06:48:53.413Z,24.24
2022-08-03T06:51:20.190Z,24.31
2022-08-03T06:53:46.767Z,24.37
2022-08-03T06:56:13.353Z,24.46
2022-08-03T06:58:39.923Z,24.52
2022-08-03T07:01:06.615Z,24.58
2022-08-03T07:03:33.274Z,24.65
2022-08-03T07:06:00.001Z,24.70
2022-08-03T07:08:33.876Z,24.76
2022-08-03T07:11:01.374Z,24.83
2022-08-03T07:13:28.019Z,24.89
2022-08-03T07:15:56.145Z,24.96
2022-08-03T07:18:28.362Z,25.03
2022-08-03T07:20:57.462Z,25.09
2022-08-03T07:23:24.308Z,25.17
2022-08-03T07:25:51.000Z,25.25
2022-08-03T07:28:18.258Z,25.32
2022-08-03T07:30:44.982Z,25.38
2022-08-03T07:33:11.718Z,25.46
2022-08-03T07:35:38.746Z,25.55
2022-08-03T07:38:05.360Z,25.63
2022-08-03T07:40:32.234Z,25.71
2022-08-03T07:42:59.963Z,25.82
2022-08-03T07:45:26.922Z,25.91
2022-08-03T07:47:54.543Z,25.99
2022-08-03T07:50:22.204Z,26.09
2022-08-03T07:52:50.194Z,26.20
2022-08-03T07:55:19.252Z,26.28
2022-08-03T07:57:46.040Z,26.38
2022-08-03T08:00:17.990Z,26.46
2022-08-03T08:02:45.510Z,26.56
2022-08-03T08:05:12.698Z,26.64
2022-08-03T08:07:40.458Z,26.73
2022-08-03T08:10:10.109Z,26.83
2022-08-03T08:12:37.814Z,26.92
2022-08-03T08:15:05.934Z,27.01
2022-08-03T08:17:41.912Z,27.10
2022-08-03T08:20:28.329Z,27.23
2022-08-03T08:23:02.112Z,27.33
2022-08-03T08:25:31.135Z,27.40
2022-08-03T08:28:29.547Z,27.50
2022-08-03T08:30:47.149Z,27.59
2022-08-03T08:33:23.009Z,27.66
2022-08-03T08:35:51.651Z,27.76
2022-08-03T08:38:18.264Z,27.85
2022-08-03T08:40:45.328Z,27.94
2022-08-03T08:43:12.091Z,28.04
2022-08-03T08:45:38.773Z,28.14
2022-08-03T08:48:08.445Z,28.21
2022-08-03T08:50:37.598Z,28.29
2022-08-03T08:53:09.759Z,28.37
2022-08-03T08:55:59.082Z,28.48
2022-08-03T08:58:28.592Z,28.60
2022-08-03T09:00:55.670Z,28.69
2022-08-03T09:03:26.159Z,28.80
2022-08-03T09:05:56.670Z,28.92
2022-08-03T09:08:23.351Z,29.02
2022-08-03T09:10:49.943Z,29.11
2022-08-03T09:13:16.669Z,29.19
2022-08-03T09:16:00.682Z,29.27
2022-08-03T09:18:32.376Z,29.36
2022-08-03T09:21:33.694Z,29.42
2022-08-03T09:24:05.665Z,29.57
2022-08-03T09:26:35.734Z,29.64
2022-08-03T09:29:13.841Z,29.68
2022-08-03T09:31:44.187Z,29.75
2022-08-03T09:34:13.393Z,29.80
2022-08-03T09:36:50.341Z,29.84
2022-08-03T09:39:40.473Z,29.88
2022-08-03T09:42:14.835Z,29.92
2022-08-03T09:44:45.465Z,29.94
2022-08-03T09:47:14.290Z,29.98
2022-08-03T09:49:43.174Z,30.01
2022-08-03T09:52:38.827Z,30.01
2022-08-03T09:56:31.555Z,30.08
2022-08-03T09:58:06.246Z,30.12
2022-08-03T10:00:32.810Z,30.19
2022-08-03T10:03:05.510Z,30.20
2022-08-03T10:05:33.116Z,30.27
2022-08-03T10:07:59.669Z,30.34
2022-08-03T10:10:30.282Z,30.40
2022-08-03T10:13:00.313Z,30.49
2022-08-03T10:16:22.503Z,30.56
2022-08-03T10:18:14.442Z,30.66
2022-08-03T10:20:49.410Z,30.72
2022-08-03T10:23:18.238Z,30.81
2022-08-03T10:25:49.468Z,30.89
2022-08-03T10:28:18.862Z,30.98
2022-08-03T10:30:50.566Z,31.08
2022-08-03T10:33:50.689Z,31.17
2022-08-03T10:36:19.507Z,31.34
2022-08-03T10:38:53.162Z,31.45
2022-08-03T10:41:27.242Z,31.56
2022-08-03T10:44:03.587Z,31.69
2022-08-03T10:46:30.164Z,31.83
2022-08-03T10:48:57.738Z,31.93
2022-08-03T10:51:25.126Z,32.04
2022-08-03T10:53:54.723Z,32.15
2022-08-03T10:56:53.488Z,32.28
2022-08-03T10:59:46.307Z,32.55
2022-08-03T11:02:14.403Z,32.91
2022-08-03T11:04:42.903Z,33.27
2022-08-03T11:07:21.907Z,33.72
2022-08-03T11:09:51.117Z,34.20
2022-08-03T11:12:30.175Z,34.62
2022-08-03T11:15:00.974Z,35.03
2022-08-03T11:17:28.091Z,35.35
2022-08-03T11:19:57.550Z,35.65
2022-08-03T11:22:25.468Z,35.95
2022-08-03T11:24:54.276Z,36.25
2022-08-03T11:27:22.880Z,36.53
2022-08-03T11:30:08.741Z,36.73
2022-08-03T11:32:38.522Z,37.00
2022-08-03T11:35:21.853Z,37.26
2022-08-03T11:38:03.234Z,37.55
2022-08-03T11:40:42.137Z,37.89
2022-08-03T11:43:26.676Z,38.20
2022-08-03T11:46:04.549Z,38.53
2022-08-03T11:48:38.756Z,38.80
2022-08-03T11:51:07.862Z,39.05
2022-08-03T11:53:42.172Z,39.28
2022-08-03T11:56:12.499Z,39.46
2022-08-03T11:59:01.103Z,39.58
2022-08-03T12:01:35.152Z,39.76
2022-08-03T12:04:05.429Z,39.82
2022-08-03T12:06:52.490Z,39.80
2022-08-03T12:09:21.367Z,39.79
2022-08-03T12:11:51.084Z,39.82
2022-08-03T12:14:49.415Z,39.90
2022-08-03T12:17:15.028Z,40.05
2022-08-03T12:19:43.241Z,40.21
2022-08-03T12:22:09.915Z,40.42
2022-08-03T12:24:43.909Z,40.60
2022-08-03T12:27:10.578Z,40.86
2022-08-03T12:29:37.986Z,41.08
2022-08-03T12:32:04.947Z,41.32
2022-08-03T12:34:48.778Z,41.56
2022-08-03T12:37:23.375Z,41.86
2022-08-03T12:40:01.626Z,42.11
2022-08-03T12:42:35.510Z,42.33
2022-08-03T12:45:32.990Z,42.51
2022-08-03T12:48:02.155Z,42.76
2022-08-03T12:50:32.219Z,42.91
2022-08-03T12:53:00.467Z,43.05
2022-08-03T12:55:40.157Z,43.21
2022-08-03T12:58:38.715Z,43.34
2022-08-03T13:01:09.564Z,43.53
2022-08-03T13:03:50.332Z,43.60
2022-08-03T13:06:25.323Z,43.68
2022-08-03T13:09:06.298Z,43.69
2022-08-03T13:11:53.590Z,43.75
2022-08-03T13:14:20.580Z,43.81
2022-08-03T13:16:48.556Z,43.92
2022-08-03T13:19:16.061Z,44.10
2022-08-03T13:22:01.791Z,44.32
2022-08-03T13:24:31.485Z,44.54
2022-08-03T13:26:58.874Z,44.68
2022-08-03T13:29:25.458Z,44.82
2022-08-03T13:31:52.061Z,44.96
2022-08-03T13:34:23.028Z,45.12
2022-08-03T13:37:08.488Z,45.27
2022-08-03T13:39:58.354Z,45.34
2022-08-03T13:42:22.395Z,45.33
2022-08-03T13:44:48.952Z,45.29
2022-08-03T13:47:15.552Z,45.32
2022-08-03T13:49:42.146Z,45.40
2022-08-03T13:52:27.946Z,45.55
2022-08-03T13:54:54.734Z,45.63
2022-08-03T13:58:11.394Z,45.66
2022-08-03T14:00:09.046Z,45.71
2022-08-03T14:02:35.789Z,45.71
2022-08-03T14:05:02.376Z,45.66
2022-08-03T14:07:28.957Z,45.52
2022-08-03T14:09:55.585Z,45.29
2022-08-03T14:12:22.281Z,44.96
2022-08-03T14:14:48.809Z,44.56
2022-08-03T14:17:16.500Z,44.16
2022-08-03T14:19:53.324Z,43.80
2022-08-03T14:22:21.055Z,43.53
2022-08-03T14:24:47.618Z,43.37
2022-08-03T14:27:15.832Z,43.29
2022-08-03T14:29:42.359Z,43.19
2022-08-03T14:32:08.983Z,43.11
2022-08-03T14:34:37.428Z,43.08
2022-08-03T14:37:04.025Z,43.05
2022-08-03T14:39:58.346Z,43.01
2022-08-03T14:42:17.181Z,42.93
2022-08-03T14:44:43.831Z,42.80
2022-08-03T14:47:10.875Z,42.64
2022-08-03T14:50:33.121Z,42.50
2022-08-03T14:52:24.606Z,42.29
2022-08-03T14:54:51.255Z,42.06
2022-08-03T14:57:17.896Z,41.82
2022-08-03T14:59:55.776Z,41.56
2022-08-03T15:02:25.030Z,41.29
2022-08-03T15:04:52.429Z,41.10
2022-08-03T15:07:20.486Z,41.04
2022-08-03T15:09:47.372Z,41.19
2022-08-03T15:12:14.033Z,41.49
2022-08-03T15:14:40.669Z,41.88
2022-08-03T15:17:07.780Z,42.30
2022-08-03T15:20:01.172Z,42.69
2022-08-03T15:22:25.209Z,43.10
2022-08-03T15:26:02.248Z,43.43
2022-08-03T15:28:03.540Z,43.75
2022-08-03T15:30:31.476Z,44.03
2022-08-03T15:33:05.407Z,44.24
2022-08-03T15:35:33.138Z,44.41
2022-08-03T15:38:00.000Z,44.51
2022-08-03T15:40:26.665Z,44.56
2022-08-03T15:42:53.217Z,44.56
2022-08-03T15:45:20.439Z,44.56
2022-08-03T15:47:47.164Z,44.58
2022-08-03T15:50:13.738Z,44.62
2022-08-03T15:52:40.297Z,44.67
2022-08-03T15:55:07.478Z,44.68
2022-08-03T15:57:34.013Z,44.58
2022-08-03T16:00:20.947Z,44.35
2022-08-03T16:03:00.628Z,44.13
2022-08-03T16:05:27.962Z,43.96
2022-08-03T16:07:58.574Z,43.85
2022-08-03T16:10:30.900Z,43.79
2022-08-03T16:12:59.005Z,43.76
2022-08-03T16:15:25.794Z,43.76
2022-08-03T16:17:52.462Z,43.77
2022-08-03T16:20:34.099Z,43.79
2022-08-03T16:23:06.972Z,43.82
2022-08-03T16:25:39.411Z,43.83
2022-08-03T16:28:12.796Z,43.90
2022-08-03T16:30:41.984Z,43.97
2022-08-03T16:33:08.964Z,44.01
2022-08-03T16:35:35.935Z,43.98
2022-08-03T16:38:07.858Z,43.91
2022-08-03T16:40:36.388Z,43.79
2022-08-03T16:43:18.094Z,43.52
2022-08-03T16:45:47.198Z,43.22
2022-08-03T16:48:15.342Z,42.86
2022-08-03T16:50:42.116Z,42.48
2022-08-03T16:53:10.091Z,42.11
2022-08-03T16:55:48.688Z,41.75
2022-08-03T16:58:34.401Z,41.38
2022-08-03T17:01:10.949Z,40.98
2022-08-03T17:04:01.412Z,40.56
2022-08-03T17:06:29.869Z,40.12
2022-08-03T17:09:02.044Z,39.71
2022-08-03T17:11:30.225Z,39.30
2022-08-03T17:14:00.153Z,38.91
2022-08-03T17:16:27.514Z,38.56
2022-08-03T17:19:02.318Z,38.22
2022-08-03T17:21:33.177Z,37.94
2022-08-03T17:24:12.845Z,37.64
2022-08-03T17:26:45.905Z,37.40
2022-08-03T17:29:22.994Z,37.18
2022-08-03T17:31:53.975Z,36.98
2022-08-03T17:34:21.714Z,36.83
2022-08-03T17:37:27.101Z,36.64
2022-08-03T17:39:58.581Z,36.45
2022-08-03T17:42:30.520Z,36.26
2022-08-03T17:44:58.117Z,36.07
2022-08-03T17:47:29.125Z,36.00
2022-08-03T17:50:23.366Z,35.84
2022-08-03T17:52:57.295Z,35.67
2022-08-03T17:55:57.137Z,35.53
2022-08-03T17:58:21.001Z,35.35
2022-08-03T18:02:01.806Z,35.24
2022-08-03T18:04:00.357Z,35.09
2022-08-03T18:06:31.632Z,34.95
2022-08-03T18:09:04.860Z,34.85
2022-08-03T18:11:51.374Z,34.72
2022-08-03T18:15:00.903Z,34.55
2022-08-03T18:17:55.145Z,34.51
2022-08-03T18:20:32.280Z,34.38
2022-08-03T18:23:04.943Z,34.29
2022-08-03T18:25:45.764Z,34.18
2022-08-03T18:28:18.936Z,34.07
2022-08-03T18:30:53.734Z,33.97
2022-08-03T18:34:17.829Z,33.87
2022-08-03T18:36:17.341Z,33.71
2022-08-03T18:38:51.015Z,33.63
2022-08-03T18:41:22.275Z,33.53
2022-08-03T18:44:07.181Z,33.45
2022-08-03T18:47:07.080Z,33.33
2022-08-03T18:50:13.624Z,33.24
2022-08-03T18:52:54.526Z,33.12
2022-08-03T18:55:35.457Z,33.00
2022-08-03T18:58:29.909Z,32.83
2022-08-03T19:01:59.782Z,32.73
2022-08-03T19:04:12.829Z,32.65
2022-08-03T19:06:44.919Z,32.55
2022-08-03T19:09:27.813Z,32.43
2022-08-03T19:12:11.717Z,32.32
2022-08-03T19:14:45.836Z,32.20
2022-08-03T19:17:13.188Z,32.14
2022-08-03T19:19:44.950Z,32.00
2022-08-03T19:22:19.700Z,31.92
2022-08-03T19:24:47.852Z,31.82
2022-08-03T19:27:15.942Z,31.73
2022-08-03T19:29:59.740Z,31.62
2022-08-03T19:32:31.649Z,31.52
2022-08-03T19:35:00.504Z,31.43
2022-08-03T19:37:33.270Z,31.33
2022-08-03T19:40:10.353Z,31.26
2022-08-03T19:42:44.102Z,31.16
2022-08-03T19:45:15.258Z,31.10
2022-08-03T19:47:52.386Z,30.99
2022-08-03T19:50:21.066Z,30.90
2022-08-03T19:52:49.750Z,30.83
2022-08-03T19:55:17.739Z,30.74
2022-08-03T19:57:49.309Z,30.64
2022-08-03T20:00:19.625Z,30.58
2022-08-03T20:02:46.539Z,30.51
2022-08-03T20:08:01.921Z,30.37
2022-08-03T20:10:30.205Z,30.30
2022-08-03T20:12:57.613Z,30.23
2022-08-03T20:15:31.783Z,30.16
2022-08-03T20:17:59.100Z,30.10
2022-08-03T20:20:34.453Z,30.00
2022-08-03T20:23:06.630Z,29.96
2022-08-03T20:25:48.864Z,29.90
2022-08-03T20:28:28.181Z,29.86
2022-08-03T20:30:56.421Z,29.81
2022-08-03T20:33:27.816Z,29.73
2022-08-03T20:36:10.289Z,29.68
2022-08-03T20:38:43.754Z,29.62
2022-08-03T20:41:14.149Z,29.58
2022-08-03T20:43:41.760Z,29.54
2022-08-03T20:46:31.378Z,29.48
2022-08-03T20:49:01.379Z,29.41
2022-08-03T20:51:52.678Z,29.35
2022-08-03T20:54:30.651Z,29.29
2022-08-03T20:57:03.765Z,29.20
2022-08-03T20:59:47.175Z,29.13
2022-08-03T21:02:19.895Z,29.05
2022-08-03T21:05:08.445Z,28.98
2022-08-03T21:08:05.519Z,28.87
2022-08-03T21:10:37.922Z,28.83
2022-08-03T21:13:03.419Z,30.46
2022-08-03T21:13:19.040Z,28.77
2022-08-03T21:16:02.560Z,28.67
2022-08-03T21:18:49.319Z,28.61
2022-08-03T21:21:21.055Z,28.55
2022-08-03T21:23:50.574Z,28.51
2022-08-03T21:26:19.683Z,28.46
2022-08-03T21:28:48.530Z,28.41
2022-08-03T21:31:25.604Z,28.35
2022-08-03T21:33:57.960Z,28.29
2022-08-03T21:36:30.647Z,28.26
2022-08-03T21:38:59.400Z,28.25
2022-08-03T21:41:31.390Z,28.18
2022-08-03T21:44:00.320Z,28.18
2022-08-03T21:46:34.097Z,28.13
2022-08-03T21:50:07.749Z,28.12
2022-08-03T21:51:52.320Z,28.08
2022-08-03T21:54:21.429Z,28.05
2022-08-03T21:56:51.176Z,28.02
2022-08-03T21:59:20.034Z,27.99
2022-08-03T22:01:55.418Z,27.94
2022-08-03T22:04:50.767Z,27.94
2022-08-03T22:07:12.457Z,27.93
2022-08-03T22:09:39.405Z,27.90
2022-08-03T22:12:06.547Z,27.88
2022-08-03T22:14:33.768Z,27.86
2022-08-03T22:17:00.736Z,27.84
2022-08-03T22:19:30.145Z,27.81
2022-08-03T22:21:58.287Z,27.80
2022-08-03T22:24:28.737Z,27.75
2022-08-03T22:27:14.297Z,27.72
2022-08-03T22:29:42.177Z,27.68
2022-08-03T22:32:08.847Z,27.65
2022-08-03T22:34:39.162Z,27.60
2022-08-03T22:37:07.000Z,27.56
2022-08-03T22:39:35.311Z,27.52
2022-08-03T22:42:05.250Z,27.45
2022-08-03T22:44:32.362Z,27.40
2022-08-03T22:46:59.294Z,27.36
2022-08-03T22:49:28.346Z,27.29
2022-08-03T22:51:56.307Z,27.25
2022-08-03T22:54:23.378Z,27.21
2022-08-03T22:56:51.184Z,27.17
2022-08-03T22:59:41.199Z,27.12
2022-08-03T23:02:16.012Z,27.03
2022-08-03T23:04:54.825Z,26.96
2022-08-03T23:07:45.758Z,26.91
2022-08-03T23:10:14.143Z,26.86
2022-08-03T23:12:43.057Z,26.79
2022-08-03T23:15:12.425Z,26.74
2022-08-03T23:17:57.500Z,26.66
2022-08-03T23:20:26.486Z,26.63
2022-08-03T23:22:54.499Z,26.58
2022-08-03T23:25:22.152Z,26.51
2022-08-03T23:28:05.421Z,26.44
2022-08-03T23:30:37.097Z,26.36
2022-08-03T23:33:04.472Z,26.31
2022-08-03T23:36:27.931Z,26.25
2022-08-03T23:38:36.979Z,26.18
2022-08-03T23:41:04.924Z,26.11
2022-08-03T23:43:52.421Z,26.04
2022-08-03T23:46:25.919Z,25.99
2022-08-03T23:48:53.826Z,25.95
2022-08-03T23:51:59.045Z,25.88
2022-08-03T23:54:40.892Z,25.88
2022-08-03T23:57:32.738Z,25.85
